createdAt,value
2019-04-11T00:00:55.413Z,7.47
2019-04-11T00:03:25.107Z,7.80
2019-04-11T00:05:54.913Z,5.97
2019-04-11T00:08:24.345Z,6.63
2019-04-11T00:10:53.592Z,9.63
2019-04-11T00:13:25.662Z,6.80
2019-04-11T00:15:53.465Z,10.25
2019-04-11T00:18:22.864Z,9.47
2019-04-11T00:20:52.792Z,9.43
2019-04-11T00:23:21.932Z,10.28
2019-04-11T00:25:51.639Z,11.13
2019-04-11T00:28:21.594Z,10.70
2019-04-11T00:30:50.886Z,12.57
2019-04-11T00:33:20.409Z,10.23
2019-04-11T00:35:50.189Z,7.80
2019-04-11T00:38:19.432Z,9.28
2019-04-11T00:40:49.136Z,8.53
2019-04-11T00:43:30.505Z,7.83
2019-04-11T00:45:49.886Z,9.30
2019-04-11T00:48:19.727Z,7.03
2019-04-11T00:50:49.643Z,7.85
2019-04-11T00:53:19.024Z,9.83
2019-04-11T00:55:49.958Z,8.47
2019-04-11T00:58:19.315Z,9.48
2019-04-11T01:00:48.565Z,8.13
2019-04-11T01:03:17.995Z,7.35
2019-04-11T01:05:47.832Z,8.70
2019-04-11T01:08:17.696Z,10.25
2019-04-11T01:10:47.821Z,7.37
2019-04-11T01:13:17.596Z,8.87
2019-04-11T01:15:54.547Z,9.18
2019-04-11T01:18:23.675Z,8.97
2019-04-11T01:20:53.634Z,7.93
2019-04-11T01:23:22.979Z,7.77
2019-04-11T01:25:52.746Z,8.68
2019-04-11T01:28:22.672Z,8.75
2019-04-11T01:31:01.036Z,9.23
2019-04-11T01:33:31.707Z,11.90
2019-04-11T01:36:00.985Z,8.10
2019-04-11T01:38:31.167Z,9.83
2019-04-11T01:41:00.408Z,7.80
2019-04-11T01:43:30.681Z,8.20
2019-04-11T01:46:00.595Z,9.03
2019-04-11T01:48:40.008Z,9.33
2019-04-11T01:51:09.650Z,7.75
2019-04-11T01:53:39.486Z,8.37
2019-04-11T01:56:09.909Z,11.38
2019-04-11T01:58:39.213Z,7.97
2019-04-11T02:01:21.037Z,10.25
2019-04-11T02:04:12.378Z,9.03
2019-04-11T02:06:45.809Z,8.70
2019-04-11T02:09:15.898Z,9.83
2019-04-11T02:11:47.715Z,9.07
2019-04-11T02:14:19.424Z,9.68
2019-04-11T02:16:47.989Z,10.75
2019-04-11T02:19:18.298Z,10.67
2019-04-11T02:21:49.577Z,9.83
2019-04-11T02:24:47.992Z,10.43
2019-04-11T02:27:21.209Z,11.00
2019-04-11T02:29:50.957Z,8.93
2019-04-11T02:32:23.420Z,11.03
2019-04-11T02:34:54.615Z,9.58
2019-04-11T02:37:26.151Z,11.65
2019-04-11T02:39:56.355Z,9.90
2019-04-11T02:42:27.730Z,10.05
2019-04-11T02:45:13.493Z,10.83
2019-04-11T02:47:32.404Z,10.25
2019-04-11T02:49:59.369Z,10.70
2019-04-11T02:52:28.903Z,11.15
2019-04-11T02:54:58.575Z,12.50
2019-04-11T02:57:27.666Z,11.80
2019-04-11T02:59:57.223Z,12.60
2019-04-11T03:02:26.784Z,10.80
2019-04-11T03:04:56.689Z,12.15
2019-04-11T03:07:26.470Z,11.73
2019-04-11T03:09:56.600Z,12.18
2019-04-11T03:12:27.413Z,10.03
2019-04-11T03:15:23.094Z,12.77
2019-04-11T03:17:35.915Z,10.47
2019-04-11T03:20:13.293Z,11.20
2019-04-11T03:22:34.285Z,11.55
2019-04-11T03:25:05.424Z,13.32
2019-04-11T03:27:34.927Z,14.33
2019-04-11T03:30:09.835Z,12.18
2019-04-11T03:33:39.649Z,13.23
2019-04-11T03:35:59.989Z,13.30
2019-04-11T03:38:00.127Z,14.45
2019-04-11T03:40:28.809Z,12.07
2019-04-11T03:42:59.881Z,14.45
2019-04-11T03:45:38.633Z,15.23
2019-04-11T03:48:08.963Z,13.70
2019-04-11T03:50:24.885Z,15.53
2019-04-11T03:52:52.416Z,13.77
2019-04-11T03:55:25.973Z,12.15
2019-04-11T03:57:56.726Z,11.17
2019-04-11T04:00:31.305Z,17.67
2019-04-11T04:02:58.103Z,12.70
2019-04-11T04:05:32.217Z,11.45
2019-04-11T04:08:01.650Z,11.73
2019-04-11T04:10:32.132Z,12.88
2019-04-11T04:13:03.247Z,11.83
2019-04-11T04:16:00.076Z,12.63
2019-04-11T04:18:54.056Z,12.53
2019-04-11T04:21:53.073Z,13.13
2019-04-11T04:24:32.226Z,13.98
2019-04-11T04:27:01.715Z,12.85
2019-04-11T04:29:32.320Z,15.72
2019-04-11T04:32:02.850Z,20.02
2019-04-11T04:34:33.880Z,20.90
2019-04-11T04:37:03.704Z,18.55
2019-04-11T04:39:34.609Z,19.23
2019-04-11T04:42:11.096Z,15.38
2019-04-11T04:44:37.817Z,15.83
2019-04-11T04:47:17.866Z,17.32
2019-04-11T04:49:38.858Z,18.52
2019-04-11T04:52:10.198Z,16.37
2019-04-11T04:54:41.099Z,19.90
2019-04-11T04:57:13.016Z,17.98
2019-04-11T04:59:44.879Z,16.82
2019-04-11T05:02:20.592Z,15.13
2019-04-11T05:04:50.192Z,14.28
2019-04-11T05:07:19.554Z,13.90
2019-04-11T05:09:51.910Z,14.53
2019-04-11T05:12:22.485Z,13.62
2019-04-11T05:14:52.204Z,15.07
2019-04-11T05:17:23.301Z,15.37
2019-04-11T05:19:54.336Z,15.33
2019-04-11T05:22:24.633Z,13.03
2019-04-11T05:24:55.473Z,13.37
2019-04-11T05:27:27.401Z,12.50
2019-04-11T05:29:56.602Z,12.23
2019-04-11T05:32:27.682Z,16.03
2019-04-11T05:34:58.539Z,13.37
2019-04-11T05:37:31.330Z,13.60
2019-04-11T05:40:01.069Z,12.90
2019-04-11T05:42:31.304Z,11.40
2019-04-11T05:45:00.512Z,12.00
2019-04-11T05:47:29.879Z,12.73
2019-04-11T05:50:09.256Z,14.50
2019-04-11T05:52:36.872Z,12.90
2019-04-11T05:55:10.583Z,15.50
2019-04-11T05:57:42.956Z,14.47
2019-04-11T06:00:19.406Z,14.83
2019-04-11T06:02:53.786Z,15.00
2019-04-11T06:05:40.913Z,14.30
2019-04-11T06:08:12.431Z,14.40
2019-04-11T06:10:54.588Z,15.27
2019-04-11T06:13:28.916Z,13.97
2019-04-11T06:16:01.350Z,12.23
2019-04-11T06:18:48.532Z,13.33
2019-04-11T06:21:28.649Z,13.73
2019-04-11T06:24:18.210Z,14.03
2019-04-11T06:27:09.326Z,13.60
2019-04-11T06:29:45.138Z,13.33
2019-04-11T06:32:48.872Z,13.13
2019-04-11T06:35:26.095Z,14.13
2019-04-11T06:38:26.850Z,14.50
2019-04-11T06:41:14.520Z,14.97
2019-04-11T06:43:52.550Z,13.37
2019-04-11T06:46:53.728Z,13.80
2019-04-11T06:49:31.502Z,11.00
2019-04-11T06:52:05.777Z,10.73
2019-04-11T06:55:02.953Z,9.80
2019-04-11T06:57:36.167Z,10.43
2019-04-11T07:00:07.288Z,12.97
2019-04-11T07:02:39.665Z,9.50
2019-04-11T07:05:10.627Z,9.53
2019-04-11T07:07:40.991Z,10.90
2019-04-11T07:10:11.648Z,10.07
2019-04-11T07:12:53.055Z,9.23
2019-04-11T07:15:31.516Z,10.83
2019-04-11T07:18:18.627Z,8.70
2019-04-11T07:21:00.648Z,8.33
2019-04-11T07:23:49.012Z,7.93
2019-04-11T07:26:37.319Z,8.80
2019-04-11T07:29:29.258Z,8.87
2019-04-11T07:32:22.301Z,9.13
2019-04-11T07:35:09.288Z,8.63
2019-04-11T07:37:40.641Z,9.00
2019-04-11T07:40:33.304Z,7.20
2019-04-11T07:43:18.826Z,7.33
2019-04-11T07:46:26.904Z,9.27
2019-04-11T07:49:08.043Z,7.30
2019-04-11T07:51:56.394Z,7.90
2019-04-11T07:54:26.617Z,8.50
2019-04-11T07:57:17.488Z,8.03
2019-04-11T08:00:06.021Z,10.03
2019-04-11T08:02:59.677Z,7.53
2019-04-11T08:05:46.717Z,7.43
2019-04-11T08:08:34.577Z,8.00
2019-04-11T08:11:09.499Z,7.33
2019-04-11T08:14:04.220Z,7.33
2019-04-11T08:17:07.595Z,6.80
2019-04-11T08:19:55.255Z,7.00
2019-04-11T08:22:35.889Z,6.87
2019-04-11T08:25:37.518Z,6.23
2019-04-11T08:28:09.970Z,6.60
2019-04-11T08:31:03.667Z,6.47
2019-04-11T08:33:35.107Z,7.77
2019-04-11T08:36:29.808Z,8.13
2019-04-11T08:39:00.613Z,6.67
2019-04-11T08:41:53.107Z,8.73
2019-04-11T08:44:26.479Z,7.50
2019-04-11T08:47:01.418Z,6.70
2019-04-11T08:49:39.720Z,7.07
2019-04-11T08:52:29.793Z,6.20
2019-04-11T08:55:04.217Z,5.47
2019-04-11T08:57:40.967Z,6.87
2019-04-11T09:00:26.289Z,8.57
2019-04-11T09:03:10.272Z,6.87
2019-04-11T09:05:58.057Z,8.23
2019-04-11T09:08:56.261Z,5.50
2019-04-11T09:11:28.721Z,7.37
2019-04-11T09:14:24.215Z,9.77
2019-04-11T09:16:59.995Z,5.87
2019-04-11T09:20:07.369Z,4.90
2019-04-11T09:22:39.532Z,9.50
2019-04-11T09:25:30.398Z,5.10
2019-04-11T09:28:17.760Z,6.47
2019-04-11T09:31:08.151Z,6.87
2019-04-11T09:33:55.449Z,6.57
2019-04-11T09:36:43.103Z,7.27
2019-04-11T09:39:35.060Z,6.90
2019-04-11T09:42:22.987Z,6.03
2019-04-11T09:45:01.422Z,5.87
2019-04-11T09:47:48.388Z,7.40
2019-04-11T09:50:32.196Z,7.73
2019-04-11T09:53:06.989Z,7.63
2019-04-11T09:55:49.994Z,9.90
2019-04-11T09:58:27.520Z,6.23
2019-04-11T10:01:22.451Z,7.40
2019-04-11T10:03:52.842Z,8.17
2019-04-11T10:06:41.054Z,8.53
2019-04-11T10:09:11.473Z,8.00
2019-04-11T10:11:48.932Z,8.00
2019-04-11T10:14:19.709Z,6.13
2019-04-11T10:17:07.003Z,6.77
2019-04-11T10:19:42.308Z,6.70
2019-04-11T10:22:49.353Z,7.07
2019-04-11T10:25:25.381Z,6.17
2019-04-11T10:28:29.920Z,6.90
2019-04-11T10:31:06.267Z,7.00
2019-04-11T10:33:55.991Z,5.93
2019-04-11T10:36:47.453Z,6.93
2019-04-11T10:39:53.756Z,7.97
2019-04-11T10:42:26.690Z,7.50
2019-04-11T10:45:31.166Z,5.73
2019-04-11T10:48:03.317Z,5.83
2019-04-11T10:50:52.677Z,6.50
2019-04-11T10:53:24.950Z,6.47
2019-04-11T10:56:13.903Z,6.53
2019-04-11T10:58:53.159Z,6.67
2019-04-11T11:01:51.009Z,6.63
2019-04-11T11:04:25.945Z,6.40
2019-04-11T11:07:02.325Z,6.07
2019-04-11T11:09:50.764Z,6.23
2019-04-11T11:12:25.416Z,4.77
2019-04-11T11:15:13.832Z,6.50
2019-04-11T11:20:58.825Z,5.60
2019-04-11T11:23:45.007Z,6.57
2019-04-11T11:26:22.725Z,7.33
2019-04-11T11:28:57.435Z,8.50
2019-04-11T11:31:57.571Z,5.90
2019-04-11T11:34:49.303Z,5.03
2019-04-11T11:37:33.377Z,5.67
2019-04-11T11:40:21.710Z,6.33
2019-04-11T11:43:08.723Z,6.50
2019-04-11T11:45:56.831Z,6.80
2019-04-11T11:48:40.047Z,7.37
2019-04-11T11:51:24.629Z,7.47
2019-04-11T11:54:19.703Z,6.80
2019-04-11T11:56:48.994Z,5.57
2019-04-11T11:59:50.454Z,5.93
2019-04-11T12:02:34.775Z,4.50
2019-04-11T12:05:26.110Z,11.93
2019-04-11T12:08:10.805Z,5.57
2019-04-11T12:11:03.989Z,6.73
2019-04-11T12:14:04.590Z,7.13
2019-04-11T12:16:59.577Z,6.90
2019-04-11T12:19:28.884Z,7.53
2019-04-11T12:21:59.917Z,6.23
2019-04-11T12:24:36.514Z,7.57
2019-04-11T12:27:24.528Z,7.20
2019-04-11T12:30:12.035Z,6.97
2019-04-11T12:32:46.664Z,5.90
2019-04-11T12:35:33.686Z,8.63
2019-04-11T12:38:08.089Z,7.47
2019-04-11T12:40:55.191Z,7.87
2019-04-11T12:43:28.193Z,5.20
2019-04-11T12:46:15.019Z,5.77
2019-04-11T12:48:47.748Z,7.70
2019-04-11T12:51:36.664Z,8.97
2019-04-11T12:54:09.334Z,7.73
2019-04-11T12:57:15.691Z,6.23
2019-04-11T12:59:45.098Z,6.67
2019-04-11T13:02:33.131Z,6.53
2019-04-11T13:05:03.002Z,5.80
2019-04-11T13:07:54.296Z,8.17
2019-04-11T13:10:28.126Z,7.60
2019-04-11T13:13:19.223Z,7.63
2019-04-11T13:16:12.489Z,6.67
2019-04-11T13:19:02.839Z,5.53
2019-04-11T13:21:53.647Z,7.20
2019-04-11T13:24:43.319Z,6.13
2019-04-11T13:27:14.762Z,6.90
2019-04-11T13:30:02.983Z,4.33
2019-04-11T13:32:52.279Z,8.10
2019-04-11T13:35:39.203Z,6.47
2019-04-11T13:38:10.397Z,7.07
2019-04-11T13:41:04.596Z,9.80
2019-04-11T13:43:45.260Z,5.97
2019-04-11T13:46:48.547Z,7.40
2019-04-11T13:49:35.321Z,8.97
2019-04-11T13:52:32.885Z,9.30
2019-04-11T13:55:08.045Z,8.73
2019-04-11T13:57:58.875Z,7.30
2019-04-11T14:00:40.063Z,8.10
2019-04-11T14:03:37.389Z,7.43
2019-04-11T14:06:32.968Z,7.43
2019-04-11T14:09:12.575Z,9.00
2019-04-11T14:11:44.939Z,6.83
2019-04-11T14:14:35.714Z,8.90
2019-04-11T14:17:32.284Z,8.50
2019-04-11T14:20:28.677Z,14.13
2019-04-11T14:23:14.909Z,8.40
2019-04-11T14:25:56.198Z,8.77
2019-04-11T14:28:27.227Z,5.23
2019-04-11T14:31:22.244Z,8.27
2019-04-11T14:33:56.600Z,9.37
2019-04-11T14:36:47.890Z,6.70
2019-04-11T14:39:18.026Z,8.93
2019-04-11T14:42:05.461Z,6.93
2019-04-11T14:44:35.718Z,7.27
2019-04-11T14:47:22.750Z,7.20
2019-04-11T14:49:56.824Z,8.03
2019-04-11T14:52:38.180Z,8.63
2019-04-11T14:55:08.778Z,7.87
2019-04-11T14:57:49.353Z,5.97
2019-04-11T15:00:28.330Z,8.67
2019-04-11T15:03:07.606Z,6.63
2019-04-11T15:05:45.357Z,8.87
2019-04-11T15:08:17.670Z,5.60
2019-04-11T15:10:57.911Z,6.07
2019-04-11T15:13:28.533Z,9.10
2019-04-11T15:16:32.158Z,5.97
2019-04-11T15:19:03.240Z,6.50
2019-04-11T15:22:00.235Z,7.43
2019-04-11T15:24:29.745Z,6.40
2019-04-11T15:27:24.215Z,6.77
2019-04-11T15:29:54.042Z,8.60
2019-04-11T15:32:37.152Z,7.43
2019-04-11T15:35:09.731Z,7.37
2019-04-11T15:37:57.014Z,7.63
2019-04-11T15:40:29.127Z,7.20
2019-04-11T15:43:32.238Z,8.53
2019-04-11T15:46:04.375Z,7.60
2019-04-11T15:49:01.750Z,7.47
2019-04-11T15:51:55.633Z,7.50
2019-04-11T15:54:44.162Z,6.33
2019-04-11T15:57:26.964Z,11.37
2019-04-11T16:00:30.369Z,8.13
2019-04-11T16:03:07.778Z,8.50
2019-04-11T16:05:54.757Z,7.60
2019-04-11T16:08:32.375Z,6.90
2019-04-11T16:11:12.389Z,7.90
2019-04-11T16:13:58.718Z,7.53
2019-04-11T16:16:39.736Z,8.07
2019-04-11T16:19:27.108Z,9.23
2019-04-11T16:22:13.317Z,7.47
2019-04-11T16:24:42.399Z,7.60
2019-04-11T16:27:29.245Z,8.27
2019-04-11T16:30:02.706Z,9.03
2019-04-11T16:32:33.225Z,8.77
2019-04-11T16:35:09.335Z,7.70
2019-04-11T16:37:38.701Z,7.80
2019-04-11T16:40:35.965Z,7.13
2019-04-11T16:43:07.513Z,9.23
2019-04-11T16:45:55.297Z,8.77
2019-04-11T16:48:25.675Z,7.83
2019-04-11T16:50:55.519Z,11.00
2019-04-11T16:53:24.717Z,8.67
2019-04-11T16:55:53.941Z,7.33
2019-04-11T16:58:23.483Z,8.40
2019-04-11T17:00:53.335Z,9.00
2019-04-11T17:03:25.061Z,6.13
2019-04-11T17:06:02.308Z,8.30
2019-04-11T17:08:36.900Z,8.30
2019-04-11T17:11:11.386Z,7.23
2019-04-11T17:13:40.621Z,7.30
2019-04-11T17:16:14.506Z,6.63
2019-04-11T17:18:43.675Z,7.67
2019-04-11T17:21:12.786Z,6.97
2019-04-11T17:23:42.183Z,7.60
2019-04-11T17:26:11.393Z,6.10
2019-04-11T17:28:40.551Z,7.20
2019-04-11T17:31:09.758Z,8.03
2019-04-11T17:33:38.961Z,7.37
2019-04-11T17:36:08.122Z,8.97
2019-04-11T17:38:37.837Z,6.97
2019-04-11T17:41:10.969Z,7.00
2019-04-11T17:43:37.798Z,6.47
2019-04-11T17:46:06.800Z,6.63
2019-04-11T17:48:35.864Z,8.10
2019-04-11T17:51:05.690Z,7.70
2019-04-11T17:53:35.303Z,7.63
2019-04-11T17:56:04.618Z,7.90
2019-04-11T17:58:33.686Z,7.10
2019-04-11T18:01:05.471Z,6.67
2019-04-11T18:03:34.252Z,9.70
2019-04-11T18:06:03.837Z,7.90
2019-04-11T18:08:32.934Z,12.47
2019-04-11T18:11:02.047Z,9.97
2019-04-11T18:13:31.764Z,9.70
2019-04-11T18:16:01.798Z,7.43
2019-04-11T18:18:34.917Z,10.37
2019-04-11T18:21:02.219Z,9.33
2019-04-11T18:23:31.592Z,8.00
2019-04-11T18:26:00.894Z,7.90
2019-04-11T18:28:30.195Z,7.13
2019-04-11T18:30:59.512Z,6.17
2019-04-11T18:33:31.476Z,7.00
2019-04-11T18:36:01.760Z,6.03
2019-04-11T18:38:32.017Z,6.83
2019-04-11T18:41:01.587Z,6.60
2019-04-11T18:43:30.997Z,6.93
2019-04-11T18:46:00.607Z,5.77
2019-04-11T18:48:29.978Z,4.17
2019-04-11T18:50:59.332Z,5.53
2019-04-11T18:53:28.948Z,4.60
2019-04-11T18:55:58.199Z,5.77
2019-04-11T18:58:27.571Z,5.30
2019-04-11T19:00:56.748Z,6.27
2019-04-11T19:03:35.673Z,3.60
2019-04-11T19:05:57.347Z,6.00
2019-04-11T19:08:27.665Z,3.70
2019-04-11T19:10:57.002Z,3.20
2019-04-11T19:13:26.180Z,3.73
2019-04-11T19:15:55.690Z,3.40
2019-04-11T19:18:24.874Z,3.50
2019-04-11T19:20:54.100Z,2.30
2019-04-11T19:23:23.194Z,2.50
2019-04-11T19:25:52.463Z,4.37
2019-04-11T19:28:24.887Z,3.10
2019-04-11T19:30:53.926Z,1.90
2019-04-11T19:33:23.626Z,3.07
2019-04-11T19:35:52.941Z,2.00
2019-04-11T19:38:33.758Z,2.17
2019-04-11T19:41:02.899Z,2.53
2019-04-11T19:43:32.089Z,1.93
2019-04-11T19:46:01.346Z,2.00
2019-04-11T19:48:30.611Z,2.70
2019-04-11T19:50:59.790Z,2.50
2019-04-11T19:53:32.731Z,2.43
2019-04-11T19:56:21.955Z,2.47
2019-04-11T19:58:51.243Z,2.60
2019-04-11T20:01:22.567Z,2.57
2019-04-11T20:03:53.774Z,1.80
2019-04-11T20:06:22.543Z,2.07
2019-04-11T20:08:52.941Z,2.20
2019-04-11T20:11:22.348Z,1.80
2019-04-11T20:13:51.546Z,1.83
2019-04-11T20:16:22.437Z,2.27
2019-04-11T20:18:54.250Z,2.00
2019-04-11T20:21:22.938Z,3.73
2019-04-11T20:23:51.925Z,2.90
2019-04-11T20:26:21.290Z,1.80
2019-04-11T20:28:51.547Z,1.63
2019-04-11T20:31:20.723Z,1.90
2019-04-11T20:33:49.896Z,1.50
2019-04-11T20:36:19.019Z,1.70
2019-04-11T20:38:48.225Z,2.10
2019-04-11T20:41:17.307Z,1.37
2019-04-11T20:43:46.553Z,2.60
2019-04-11T20:46:15.935Z,2.00
2019-04-11T20:48:45.436Z,1.40
2019-04-11T20:51:14.465Z,1.47
2019-04-11T20:53:43.618Z,2.47
2019-04-11T20:56:23.613Z,1.97
2019-04-11T20:58:43.889Z,1.70
2019-04-11T21:01:13.125Z,3.07
2019-04-11T21:03:42.590Z,1.93
2019-04-11T21:06:11.630Z,2.00
2019-04-11T21:08:40.836Z,4.10
2019-04-11T21:11:10.029Z,3.97
2019-04-11T21:13:39.456Z,2.20
2019-04-11T21:16:08.714Z,2.10
2019-04-11T21:18:37.979Z,2.27
2019-04-11T21:21:07.126Z,2.50
2019-04-11T21:23:36.502Z,2.43
2019-04-11T21:26:06.048Z,3.27
2019-04-11T21:28:35.135Z,3.47
2019-04-11T21:31:04.421Z,3.27
2019-04-11T21:33:34.901Z,1.83
2019-04-11T21:36:04.334Z,1.50
2019-04-11T21:38:33.581Z,1.70
2019-04-11T21:41:05.947Z,1.50
2019-04-11T21:43:35.964Z,2.07
2019-04-11T21:46:06.786Z,1.60
2019-04-11T21:48:36.060Z,1.73
2019-04-11T21:51:05.911Z,1.87
2019-04-11T21:53:36.661Z,1.47
2019-04-11T21:56:06.031Z,1.83
2019-04-11T21:58:35.227Z,1.40
2019-04-11T22:01:07.482Z,1.80
2019-04-11T22:03:36.872Z,2.00
2019-04-11T22:06:06.182Z,1.60
2019-04-11T22:08:35.495Z,1.70
2019-04-11T22:11:04.669Z,1.60
2019-04-11T22:13:33.797Z,2.30
2019-04-11T22:16:02.947Z,4.30
2019-04-11T22:18:31.960Z,2.60
2019-04-11T22:21:01.037Z,2.17
2019-04-11T22:23:30.232Z,2.30
2019-04-11T22:25:59.274Z,3.17
2019-04-11T22:28:28.364Z,1.13
2019-04-11T22:30:57.496Z,1.47
2019-04-11T22:33:57.845Z,1.70
2019-04-11T22:36:27.885Z,1.90
2019-04-11T22:38:58.750Z,1.80
2019-04-11T22:41:29.543Z,1.50
2019-04-11T22:43:58.807Z,2.13
2019-04-11T22:46:29.568Z,2.50
2019-04-11T22:48:58.691Z,1.90
2019-04-11T22:51:27.957Z,1.67
2019-04-11T22:54:00.573Z,2.13
2019-04-11T22:56:27.822Z,2.07
2019-04-11T22:58:57.236Z,2.10
2019-04-11T23:01:26.479Z,1.80
2019-04-11T23:04:02.751Z,12.10
2019-04-11T23:06:32.047Z,4.20
2019-04-11T23:09:01.205Z,3.63
2019-04-11T23:11:30.242Z,2.03
2019-04-11T23:13:59.222Z,10.00
2019-04-11T23:16:28.432Z,5.27
2019-04-11T23:18:57.624Z,26.83
2019-04-11T23:21:27.025Z,4.20
2019-04-11T23:23:56.214Z,1.67
2019-04-11T23:26:25.553Z,2.27
2019-04-11T23:28:54.960Z,2.00
2019-04-11T23:31:24.416Z,2.33
2019-04-11T23:33:53.626Z,2.10
2019-04-11T23:36:22.803Z,4.07
2019-04-11T23:38:52.700Z,2.40
2019-04-11T23:41:24.698Z,3.30
2019-04-11T23:43:54.182Z,1.80
2019-04-11T23:46:23.403Z,2.37
2019-04-11T23:48:55.468Z,2.00
2019-04-11T23:51:26.393Z,1.77
2019-04-11T23:53:54.575Z,2.00
2019-04-11T23:56:24.311Z,1.60
2019-04-11T23:58:53.580Z,2.17
